createdAt,value
2018-03-17T00:01:03.413Z,-1.32
2018-03-17T00:04:08.953Z,-1.31
2018-03-17T00:07:14.234Z,-1.38
2018-03-17T00:10:19.773Z,-1.48
2018-03-17T00:13:25.048Z,-1.49
2018-03-17T00:16:30.593Z,-1.48
2018-03-17T00:19:36.088Z,-1.56
2018-03-17T00:22:41.640Z,-1.59
2018-03-17T00:25:46.741Z,-1.65
2018-03-17T00:28:52.272Z,-1.66
2018-03-17T00:31:57.512Z,-1.69
2018-03-17T00:35:03.024Z,-1.71
2018-03-17T00:38:08.917Z,-1.71
2018-03-17T00:41:14.440Z,-1.67
2018-03-17T00:44:19.977Z,-1.65
2018-03-17T00:47:25.464Z,-1.86
2018-03-17T00:50:33.770Z,-1.89
2018-03-17T00:53:39.152Z,-1.73
2018-03-17T00:56:44.705Z,-1.82
2018-03-17T00:59:50.253Z,-1.77
2018-03-17T01:02:55.749Z,-1.74
2018-03-17T01:06:01.299Z,-1.81
2018-03-17T01:09:06.870Z,-1.85
2018-03-17T01:12:12.216Z,-1.88
2018-03-17T01:15:18.092Z,-1.96
2018-03-17T01:18:23.629Z,-2.03
2018-03-17T01:21:29.118Z,-2.06
2018-03-17T01:24:34.671Z,-2.02
2018-03-17T01:27:40.188Z,-2.07
2018-03-17T01:30:45.726Z,-2.11
2018-03-17T01:33:51.234Z,-2.02
2018-03-17T01:36:56.785Z,-1.97
2018-03-17T01:40:02.285Z,-2.01
2018-03-17T01:43:07.917Z,-2.01
2018-03-17T01:46:13.405Z,-2.01
2018-03-17T01:49:18.961Z,-2.11
2018-03-17T01:52:24.463Z,-2.13
2018-03-17T01:55:30.001Z,-2.07
2018-03-17T01:58:35.543Z,-2.10
2018-03-17T02:01:41.421Z,-2.12
2018-03-17T02:04:46.984Z,-2.15
2018-03-17T02:07:52.525Z,-2.22
2018-03-17T02:10:58.025Z,-2.24
2018-03-17T02:14:03.276Z,-2.20
2018-03-17T02:17:08.875Z,-2.24
2018-03-17T02:20:14.418Z,-2.23
2018-03-17T02:23:19.922Z,-2.17
2018-03-17T02:26:25.483Z,-2.25
2018-03-17T02:29:31.037Z,-2.16
2018-03-17T02:32:36.575Z,-2.25
2018-03-17T02:35:42.145Z,-2.26
2018-03-17T02:38:47.655Z,-2.17
2018-03-17T02:41:53.200Z,-2.21
2018-03-17T02:44:58.751Z,-2.19
2018-03-17T02:48:04.248Z,-2.10
2018-03-17T02:51:09.790Z,-2.12
2018-03-17T02:54:15.297Z,-2.04
2018-03-17T02:57:20.832Z,-2.12
2018-03-17T03:00:26.368Z,-2.03
2018-03-17T03:03:31.918Z,-2.02
2018-03-17T03:06:37.522Z,-2.01
2018-03-17T03:09:43.062Z,-2.06
2018-03-17T03:12:48.610Z,-2.05
2018-03-17T03:15:54.108Z,-2.00
2018-03-17T03:18:59.648Z,-1.99
2018-03-17T03:22:05.192Z,-1.97
2018-03-17T03:25:10.737Z,-1.95
2018-03-17T03:28:16.352Z,-1.94
2018-03-17T03:31:22.063Z,-1.93
2018-03-17T03:34:27.589Z,-1.89
2018-03-17T03:37:33.150Z,-1.82
2018-03-17T03:40:38.689Z,-1.89
2018-03-17T03:43:44.204Z,-1.97
2018-03-17T03:46:49.749Z,-2.03
2018-03-17T03:49:55.291Z,-2.00
2018-03-17T03:53:00.832Z,-1.99
2018-03-17T03:56:06.369Z,-2.07
2018-03-17T03:59:11.932Z,-1.98
2018-03-17T04:02:17.535Z,-2.07
2018-03-17T04:05:23.073Z,-2.11
2018-03-17T04:08:28.615Z,-2.06
2018-03-17T04:11:34.149Z,-2.09
2018-03-17T04:14:39.723Z,-2.10
2018-03-17T04:17:45.253Z,-2.09
2018-03-17T04:20:50.542Z,-2.07
2018-03-17T04:23:56.077Z,-2.15
2018-03-17T04:27:01.640Z,-2.23
2018-03-17T04:30:07.145Z,-2.21
2018-03-17T04:33:12.736Z,-2.22
2018-03-17T04:36:18.217Z,-2.18
2018-03-17T04:39:23.752Z,-2.26
2018-03-17T04:42:29.241Z,-2.22
2018-03-17T04:45:34.792Z,-2.26
2018-03-17T04:48:40.332Z,-2.23
2018-03-17T04:51:45.846Z,-2.23
2018-03-17T04:54:51.412Z,-2.33
2018-03-17T04:57:56.970Z,-2.26
2018-03-17T05:01:02.492Z,-2.37
2018-03-17T05:04:07.904Z,-2.36
2018-03-17T05:07:14.024Z,-2.45
2018-03-17T05:10:20.277Z,-2.35
2018-03-17T05:13:27.541Z,-2.36
2018-03-17T05:16:37.714Z,-2.20
2018-03-17T05:19:44.124Z,-2.23
2018-03-17T05:22:49.618Z,-2.24
2018-03-17T05:25:55.205Z,-2.25
2018-03-17T05:29:00.707Z,-2.15
2018-03-17T05:32:20.745Z,-2.21
2018-03-17T05:35:48.818Z,-2.22
2018-03-17T05:43:04.556Z,-2.24
2018-03-17T05:46:40.983Z,-2.15
2018-03-17T05:50:11.113Z,-2.20
2018-03-17T05:53:52.179Z,-2.19
2018-03-17T05:57:22.885Z,-2.23
2018-03-17T06:01:01.078Z,-2.20
2018-03-17T06:04:28.104Z,-2.09
2018-03-17T06:08:09.754Z,-2.17
2018-03-17T06:11:47.972Z,-2.32
2018-03-17T06:15:15.784Z,-2.28
2018-03-17T06:18:34.737Z,-2.24
2018-03-17T06:21:40.237Z,-2.09
2018-03-17T06:24:47.288Z,-2.09
2018-03-17T06:27:54.489Z,-2.12
2018-03-17T06:31:00.260Z,-2.11
2018-03-17T06:34:05.801Z,-2.22
2018-03-17T06:37:11.307Z,-2.30
2018-03-17T06:40:17.153Z,-2.22
2018-03-17T06:43:22.721Z,-2.20
2018-03-17T06:46:28.217Z,-2.16
2018-03-17T06:49:33.759Z,-2.10
2018-03-17T06:52:39.247Z,-2.18
2018-03-17T06:55:44.832Z,-2.10
2018-03-17T06:58:50.384Z,-2.16
2018-03-17T07:01:58.374Z,-2.21
2018-03-17T07:05:03.972Z,-2.22
2018-03-17T07:08:09.483Z,-2.13
2018-03-17T07:11:15.025Z,-2.01
2018-03-17T07:14:20.533Z,-2.06
2018-03-17T07:17:25.930Z,-1.99
2018-03-17T07:20:34.873Z,-2.03
2018-03-17T07:23:40.361Z,-2.06
2018-03-17T07:26:45.899Z,-1.94
2018-03-17T07:29:51.395Z,-1.95
2018-03-17T07:32:57.316Z,-2.01
2018-03-17T07:36:02.850Z,-1.95
2018-03-17T07:39:08.413Z,-1.89
2018-03-17T07:42:14.072Z,-1.85
2018-03-17T07:45:19.689Z,-1.87
2018-03-17T07:48:25.353Z,-1.84
2018-03-17T07:51:30.892Z,-1.77
2018-03-17T07:54:36.446Z,-1.67
2018-03-17T07:57:42.024Z,-1.59
2018-03-17T08:00:47.527Z,-1.62
2018-03-17T08:03:53.073Z,-1.57
2018-03-17T08:06:58.621Z,-1.53
2018-03-17T08:10:03.907Z,-1.55
2018-03-17T08:13:09.454Z,-1.48
2018-03-17T08:16:14.990Z,-1.43
2018-03-17T08:19:20.528Z,-1.41
2018-03-17T08:22:26.054Z,-1.41
2018-03-17T08:25:31.600Z,-1.39
2018-03-17T08:28:37.135Z,-1.32
2018-03-17T08:31:42.629Z,-1.28
2018-03-17T08:34:48.177Z,-1.29
2018-03-17T08:37:53.717Z,-1.25
2018-03-17T08:40:59.254Z,-1.19
2018-03-17T08:44:04.771Z,-1.14
2018-03-17T08:47:10.194Z,-1.14
2018-03-17T08:50:15.753Z,-1.15
2018-03-17T08:53:21.302Z,-1.05
2018-03-17T08:56:26.878Z,-1.06
2018-03-17T08:59:32.512Z,-1.00
2018-03-17T09:02:38.268Z,-0.90
2018-03-17T09:05:43.925Z,-0.92
2018-03-17T09:08:49.471Z,-0.91
2018-03-17T09:11:55.035Z,-1.02
2018-03-17T09:15:00.529Z,-0.97
2018-03-17T09:18:06.070Z,-0.94
2018-03-17T09:21:18.013Z,-0.81
2018-03-17T09:24:26.317Z,-0.66
2018-03-17T09:27:36.158Z,-0.58
2018-03-17T09:30:41.718Z,-0.64
2018-03-17T09:33:47.221Z,-0.60
2018-03-17T09:36:52.762Z,-0.51
2018-03-17T09:39:58.304Z,-0.51
2018-03-17T09:43:03.902Z,-0.55
2018-03-17T09:46:09.405Z,-0.47
2018-03-17T09:49:15.106Z,-0.53
2018-03-17T09:52:27.059Z,-0.53
2018-03-17T09:55:38.709Z,-0.52
2018-03-17T09:58:44.546Z,-0.44
2018-03-17T10:02:05.716Z,-0.35
2018-03-17T10:05:38.788Z,-0.34
2018-03-17T10:09:01.775Z,-0.39
2018-03-17T10:12:25.957Z,-0.36
2018-03-17T10:16:11.504Z,-0.26
2018-03-17T10:19:45.222Z,-0.29
2018-03-17T10:23:04.816Z,-0.23
2018-03-17T10:26:29.290Z,-0.15
2018-03-17T10:29:46.757Z,-0.20
2018-03-17T10:33:13.790Z,-0.30
2018-03-17T10:36:50.093Z,-0.21
2018-03-17T10:40:15.638Z,-0.17
2018-03-17T10:43:38.366Z,-0.16
2018-03-17T10:47:19.899Z,-0.21
2018-03-17T10:50:27.973Z,-0.23
2018-03-17T10:53:37.224Z,-0.18
2018-03-17T10:56:54.380Z,-0.14
2018-03-17T11:00:16.734Z,-0.13
2018-03-17T11:03:42.536Z,-0.09
2018-03-17T11:07:23.358Z,-0.05
2018-03-17T11:11:02.222Z,0.03
2018-03-17T11:14:27.164Z,-0.01
2018-03-17T11:17:50.205Z,-0.01
2018-03-17T11:21:26.450Z,0.08
2018-03-17T11:25:05.016Z,0.08
2018-03-17T11:28:33.313Z,0.11
2018-03-17T11:31:57.552Z,0.18
2018-03-17T11:35:25.487Z,0.12
2018-03-17T11:38:30.890Z,0.19
2018-03-17T11:41:36.288Z,0.26
2018-03-17T11:44:41.821Z,0.33
2018-03-17T11:47:47.344Z,0.38
2018-03-17T11:50:52.892Z,0.39
2018-03-17T11:53:59.903Z,0.35
2018-03-17T11:57:06.181Z,0.36
2018-03-17T12:00:15.271Z,0.30
2018-03-17T12:03:23.014Z,0.28
2018-03-17T12:06:46.518Z,0.38
2018-03-17T12:10:16.342Z,0.32
2018-03-17T12:13:21.913Z,0.32
2018-03-17T12:16:31.041Z,0.26
2018-03-17T12:19:36.594Z,0.30
2018-03-17T12:22:42.145Z,0.30
2018-03-17T12:25:47.642Z,0.29
2018-03-17T12:28:54.573Z,0.30
2018-03-17T12:32:00.138Z,0.36
2018-03-17T12:35:05.675Z,0.33
2018-03-17T12:38:11.222Z,0.42
2018-03-17T12:41:16.995Z,0.49
2018-03-17T12:44:23.865Z,0.40
2018-03-17T12:47:29.414Z,0.47
2018-03-17T12:50:36.109Z,0.43
2018-03-17T12:53:42.714Z,0.47
2018-03-17T12:56:48.209Z,0.53
2018-03-17T12:59:53.839Z,0.44
2018-03-17T13:02:59.374Z,0.44
2018-03-17T13:06:04.879Z,0.51
2018-03-17T13:09:11.327Z,0.58
2018-03-17T13:12:29.873Z,0.63
2018-03-17T13:16:09.963Z,0.67
2018-03-17T13:19:40.159Z,0.75
2018-03-17T13:23:26.579Z,0.78
2018-03-17T13:27:13.988Z,0.77
2018-03-17T13:30:52.470Z,0.78
2018-03-17T13:34:20.584Z,0.75
2018-03-17T13:38:00.618Z,0.76
2018-03-17T13:41:29.720Z,0.77
2018-03-17T13:44:54.709Z,0.81
2018-03-17T13:48:20.125Z,0.82
2018-03-17T13:51:41.191Z,0.91
2018-03-17T13:55:03.822Z,0.88
2018-03-17T13:58:40.347Z,0.88
2018-03-17T14:02:21.059Z,0.89
2018-03-17T14:05:45.694Z,0.84
2018-03-17T14:09:12.720Z,0.86
2018-03-17T14:12:54.244Z,0.83
2018-03-17T14:16:22.042Z,0.84
2018-03-17T14:19:46.916Z,0.83
2018-03-17T14:23:12.497Z,0.84
2018-03-17T14:26:39.033Z,0.91
2018-03-17T14:30:07.273Z,0.87
2018-03-17T14:33:47.551Z,0.93
2018-03-17T14:37:12.495Z,0.90
2018-03-17T14:40:26.458Z,0.94
2018-03-17T14:43:58.406Z,0.93
2018-03-17T14:47:25.457Z,0.95
2018-03-17T14:50:53.128Z,1.00
2018-03-17T14:54:19.259Z,0.99
2018-03-17T14:57:46.620Z,0.93
2018-03-17T15:01:09.161Z,0.94
2018-03-17T15:04:50.971Z,0.92
2018-03-17T15:08:23.817Z,0.99
2018-03-17T15:12:05.146Z,0.94
2018-03-17T15:15:43.702Z,0.91
2018-03-17T15:19:11.652Z,0.90
2018-03-17T15:22:30.813Z,0.92
2018-03-17T15:25:39.134Z,0.86
2018-03-17T15:28:51.800Z,0.81
2018-03-17T15:32:15.949Z,0.79
2018-03-17T15:35:34.010Z,0.86
2018-03-17T15:38:50.636Z,0.82
2018-03-17T15:42:30.955Z,0.86
2018-03-17T15:45:57.599Z,0.88
2018-03-17T15:49:18.998Z,0.69
2018-03-17T15:52:45.909Z,0.71
2018-03-17T15:56:11.697Z,0.49
2018-03-17T15:59:51.447Z,0.44
2018-03-17T16:03:17.186Z,0.65
2018-03-17T16:06:45.054Z,0.67
2018-03-17T16:10:03.477Z,0.55
2018-03-17T16:13:15.460Z,0.49
2018-03-17T16:16:29.794Z,0.40
2018-03-17T16:19:56.964Z,0.22
2018-03-17T16:23:19.312Z,0.19
2018-03-17T16:26:44.368Z,0.21
2018-03-17T16:30:11.387Z,0.08
2018-03-17T16:33:37.779Z,0.13
2018-03-17T16:37:19.087Z,0.09
2018-03-17T16:40:48.554Z,-0.10
2018-03-17T16:44:29.433Z,-0.06
2018-03-17T16:47:56.537Z,-0.02
2018-03-17T16:51:22.333Z,-0.09
2018-03-17T16:54:48.517Z,-0.20
2018-03-17T16:58:20.564Z,-0.27
2018-03-17T17:01:54.904Z,-0.41
2018-03-17T17:05:03.020Z,-0.37
2018-03-17T17:08:08.552Z,-0.37
2018-03-17T17:11:14.361Z,-0.39
2018-03-17T17:14:23.333Z,-0.59
2018-03-17T17:17:30.606Z,-0.49
2018-03-17T17:20:36.959Z,-0.66
2018-03-17T17:23:42.778Z,-0.51
2018-03-17T17:26:48.414Z,-0.58
2018-03-17T17:29:54.105Z,-0.64
2018-03-17T17:33:02.134Z,-0.57
2018-03-17T17:36:07.775Z,-0.66
2018-03-17T17:39:13.441Z,-0.74
2018-03-17T17:42:19.175Z,-0.90
2018-03-17T17:45:24.873Z,-0.96
2018-03-17T17:48:31.081Z,-0.98
2018-03-17T17:51:36.702Z,-1.06
2018-03-17T17:54:42.391Z,-0.95
2018-03-17T17:57:48.195Z,-0.91
2018-03-17T18:00:53.770Z,-1.02
2018-03-17T18:03:59.419Z,-1.12
2018-03-17T18:07:05.211Z,-1.14
2018-03-17T18:10:11.559Z,-1.30
2018-03-17T18:13:17.118Z,-1.20
2018-03-17T18:16:22.707Z,-1.35
2018-03-17T18:19:28.307Z,-1.27
2018-03-17T18:22:33.904Z,-1.36
2018-03-17T18:25:39.438Z,-1.42
2018-03-17T18:28:44.993Z,-1.32
2018-03-17T18:31:50.551Z,-1.42
2018-03-17T18:34:56.053Z,-1.38
2018-03-17T18:38:01.604Z,-1.50
2018-03-17T18:41:07.166Z,-1.41
2018-03-17T18:44:12.708Z,-1.53
2018-03-17T18:47:18.674Z,-1.67
2018-03-17T18:50:24.534Z,-1.68
2018-03-17T18:53:30.074Z,-1.64
2018-03-17T18:56:35.650Z,-1.66
2018-03-17T18:59:41.382Z,-1.61
2018-03-17T19:02:47.179Z,-1.77
2018-03-17T19:05:52.935Z,-1.71
2018-03-17T19:08:58.645Z,-1.78
2018-03-17T19:12:08.385Z,-1.84
2018-03-17T19:15:13.985Z,-1.83
2018-03-17T19:18:19.929Z,-1.82
2018-03-17T19:21:25.539Z,-1.82
2018-03-17T19:24:31.046Z,-1.85
2018-03-17T19:27:36.597Z,-1.87
2018-03-17T19:30:42.157Z,-1.84
2018-03-17T19:33:47.804Z,-1.91
2018-03-17T19:36:53.389Z,-1.84
2018-03-17T19:39:58.953Z,-1.87
2018-03-17T19:43:04.496Z,-1.88
2018-03-17T19:46:10.177Z,-1.90
2018-03-17T19:49:15.794Z,-1.95
2018-03-17T19:52:21.362Z,-1.95
2018-03-17T19:55:26.984Z,-1.88
2018-03-17T19:58:33.400Z,-2.00
2018-03-17T20:01:38.898Z,-2.05
2018-03-17T20:04:44.457Z,-1.99
2018-03-17T20:07:49.971Z,-1.92
2018-03-17T20:10:55.530Z,-1.98
2018-03-17T20:14:01.086Z,-2.01
2018-03-17T20:17:06.639Z,-2.10
2018-03-17T20:20:12.185Z,-2.11
2018-03-17T20:23:17.709Z,-2.14
2018-03-17T20:26:23.250Z,-2.11
2018-03-17T20:29:28.777Z,-2.08
2018-03-17T20:32:34.329Z,-2.11
2018-03-17T20:35:39.877Z,-2.06
2018-03-17T20:38:45.298Z,-2.09
2018-03-17T20:41:50.892Z,-2.09
2018-03-17T20:44:56.484Z,-2.24
2018-03-17T20:48:02.027Z,-2.18
2018-03-17T20:51:07.644Z,-2.27
2018-03-17T20:54:13.336Z,-2.18
2018-03-17T20:57:25.808Z,-2.13
2018-03-17T21:00:38.569Z,-2.29
2018-03-17T21:03:46.017Z,-2.38
2018-03-17T21:07:05.133Z,-2.27
2018-03-17T21:10:24.430Z,-2.26
2018-03-17T21:13:50.063Z,-2.31
2018-03-17T21:17:20.999Z,-2.24
2018-03-17T21:20:39.425Z,-2.15
2018-03-17T21:24:04.439Z,-2.21
2018-03-17T21:27:27.556Z,-2.30
2018-03-17T21:30:56.833Z,-2.37
2018-03-17T21:34:33.675Z,-2.43
2018-03-17T21:37:45.888Z,-2.33
2018-03-17T21:40:58.571Z,-2.34
2018-03-17T21:44:37.836Z,-2.37
2018-03-17T21:47:54.346Z,-2.32
2018-03-17T21:50:59.892Z,-2.42
2018-03-17T21:54:05.440Z,-2.37
2018-03-17T21:57:14.633Z,-2.45
2018-03-17T22:00:20.174Z,-2.36
2018-03-17T22:03:25.727Z,-2.37
2018-03-17T22:06:31.286Z,-2.33
2018-03-17T22:09:36.793Z,-2.38
2018-03-17T22:12:42.352Z,-2.44
2018-03-17T22:15:47.860Z,-2.30
2018-03-17T22:18:53.572Z,-2.34
2018-03-17T22:21:59.087Z,-2.46
2018-03-17T22:25:04.644Z,-2.54
2018-03-17T22:28:10.376Z,-2.43
2018-03-17T22:31:15.954Z,-2.44
2018-03-17T22:34:21.479Z,-2.48
2018-03-17T22:37:26.867Z,-2.55
2018-03-17T22:40:35.588Z,-2.38
2018-03-17T22:43:55.735Z,-2.50
2018-03-17T22:47:09.459Z,-2.55
2018-03-17T22:50:27.494Z,-2.54
2018-03-17T22:53:42.065Z,-2.59
2018-03-17T22:56:52.222Z,-2.54
2018-03-17T23:00:01.953Z,-2.55
2018-03-17T23:03:10.216Z,-2.66
2018-03-17T23:06:18.269Z,-2.58
2018-03-17T23:09:30.966Z,-2.52
2018-03-17T23:12:39.475Z,-2.62
2018-03-17T23:15:46.138Z,-2.53
2018-03-17T23:19:00.602Z,-2.63
2018-03-17T23:22:31.791Z,-2.66
2018-03-17T23:25:49.371Z,-2.77
2018-03-17T23:29:01.280Z,-2.85
2018-03-17T23:32:13.147Z,-2.88
2018-03-17T23:35:21.799Z,-2.72
2018-03-17T23:38:29.219Z,-2.74
2018-03-17T23:41:35.106Z,-2.86
2018-03-17T23:44:40.535Z,-2.85
2018-03-17T23:47:45.906Z,-2.91
2018-03-17T23:50:51.350Z,-2.98
2018-03-17T23:53:56.729Z,-2.80
2018-03-17T23:57:02.647Z,-2.88
